createdAt,value
2022-11-01T00:02:10.887Z,3.75
2022-11-01T00:04:38.285Z,4.20
2022-11-01T00:07:06.596Z,5.47
2022-11-01T00:09:35.254Z,4.47
2022-11-01T00:12:02.623Z,3.22
2022-11-01T00:14:29.963Z,4.32
2022-11-01T00:16:57.283Z,4.07
2022-11-01T00:19:24.538Z,4.28
2022-11-01T00:21:52.136Z,5.07
2022-11-01T00:24:19.589Z,3.70
2022-11-01T00:29:19.099Z,4.22
2022-11-01T00:31:46.586Z,5.03
2022-11-01T00:34:13.880Z,4.05
2022-11-01T00:36:41.118Z,4.65
2022-11-01T00:39:12.157Z,6.82
2022-11-01T00:41:39.434Z,4.38
2022-11-01T00:44:06.759Z,4.15
2022-11-01T00:46:34.145Z,4.00
2022-11-01T00:49:01.452Z,4.55
2022-11-01T00:51:28.796Z,6.13
2022-11-01T00:53:56.136Z,5.25
2022-11-01T00:56:23.387Z,4.95
2022-11-01T00:58:50.869Z,4.13
2022-11-01T01:01:18.182Z,4.05
2022-11-01T01:03:45.745Z,4.28
2022-11-01T01:06:13.087Z,3.10
2022-11-01T01:08:40.328Z,3.78
2022-11-01T01:11:07.657Z,3.88
2022-11-01T01:13:34.925Z,3.85
2022-11-01T01:16:08.173Z,3.80
2022-11-01T01:18:35.754Z,3.60
2022-11-01T01:21:04.588Z,4.03
2022-11-01T01:23:32.443Z,3.83
2022-11-01T01:25:59.877Z,4.05
2022-11-01T01:28:27.293Z,4.07
2022-11-01T01:30:54.795Z,3.75
2022-11-01T01:33:22.030Z,3.80
2022-11-01T01:35:49.314Z,2.97
2022-11-01T01:38:16.659Z,3.85
2022-11-01T01:40:44.300Z,3.17
2022-11-01T01:43:12.521Z,4.70
2022-11-01T01:45:41.692Z,4.13
2022-11-01T01:48:23.335Z,3.92
2022-11-01T01:50:59.702Z,3.63
2022-11-01T01:53:40.663Z,4.38
2022-11-01T01:56:12.013Z,3.65
2022-11-01T01:59:02.683Z,3.65
2022-11-01T02:01:31.114Z,4.70
2022-11-01T02:03:58.716Z,5.32
2022-11-01T02:06:26.518Z,5.97
2022-11-01T02:08:59.808Z,4.85
2022-11-01T02:11:27.415Z,3.38
2022-11-01T02:13:55.694Z,4.15
2022-11-01T02:16:47.578Z,3.85
2022-11-01T02:19:33.657Z,4.60
2022-11-01T02:22:28.981Z,7.13
2022-11-01T02:25:17.627Z,4.85
2022-11-01T02:28:20.382Z,5.63
2022-11-01T02:31:06.692Z,3.72
2022-11-01T02:33:42.144Z,3.55
2022-11-01T02:36:31.104Z,5.15
2022-11-01T02:39:09.843Z,4.55
2022-11-01T02:41:44.956Z,3.22
2022-11-01T02:44:18.714Z,3.13
2022-11-01T02:47:03.243Z,2.47
2022-11-01T02:49:46.225Z,1.70
2022-11-01T02:52:22.745Z,1.17
2022-11-01T02:57:39.317Z,1.08
2022-11-01T03:00:26.015Z,1.05
2022-11-01T03:03:01.193Z,0.90
2022-11-01T03:05:41.394Z,1.15
2022-11-01T03:08:11.777Z,1.17
2022-11-01T03:10:53.759Z,1.10
2022-11-01T03:13:34.172Z,1.77
2022-11-01T03:16:29.507Z,1.23
2022-11-01T03:19:02.668Z,1.17
2022-11-01T03:21:34.067Z,1.58
2022-11-01T03:24:09.288Z,2.42
2022-11-01T03:26:39.998Z,1.92
2022-11-01T03:29:10.045Z,2.08
2022-11-01T03:31:39.693Z,2.72
2022-11-01T03:34:12.493Z,2.67
2022-11-01T03:36:47.237Z,3.15
2022-11-01T03:39:24.694Z,2.80
2022-11-01T03:41:57.625Z,4.07
2022-11-01T03:44:26.880Z,2.85
2022-11-01T03:46:54.139Z,3.88
2022-11-01T03:49:21.408Z,4.18
2022-11-01T03:51:49.061Z,4.30
2022-11-01T03:54:16.330Z,4.15
2022-11-01T03:56:43.636Z,4.45
2022-11-01T03:59:11.114Z,3.42
2022-11-01T04:01:38.587Z,4.20
2022-11-01T04:04:06.066Z,4.30
2022-11-01T04:06:33.400Z,3.60
2022-11-01T04:09:00.647Z,4.65
2022-11-01T04:11:28.081Z,4.93
2022-11-01T04:14:15.295Z,5.13
2022-11-01T04:17:02.137Z,5.55
2022-11-01T04:19:48.247Z,6.05
2022-11-01T04:22:18.181Z,3.53
2022-11-01T04:24:47.980Z,4.85
2022-11-01T04:27:15.934Z,3.45
2022-11-01T04:29:43.634Z,3.65
2022-11-01T04:32:11.026Z,5.70
2022-11-01T04:34:44.128Z,4.95
2022-11-01T04:37:12.713Z,4.50
2022-11-01T04:39:40.102Z,3.90
2022-11-01T04:42:07.345Z,4.25
2022-11-01T04:44:34.600Z,3.55
2022-11-01T04:47:02.739Z,4.45
2022-11-01T04:49:30.023Z,4.07
2022-11-01T04:51:57.364Z,4.20
2022-11-01T04:54:24.631Z,4.22
2022-11-01T04:56:51.902Z,3.78
2022-11-01T04:59:19.169Z,4.07
2022-11-01T05:01:46.597Z,4.38
2022-11-01T05:04:14.121Z,3.63
2022-11-01T05:06:41.391Z,4.20
2022-11-01T05:09:08.678Z,4.28
2022-11-01T05:11:36.012Z,3.95
2022-11-01T05:14:03.315Z,5.35
2022-11-01T05:16:30.679Z,4.40
2022-11-01T05:18:58.150Z,3.72
2022-11-01T05:21:25.391Z,3.65
2022-11-01T05:23:52.644Z,4.03
2022-11-01T05:26:19.911Z,4.75
2022-11-01T05:28:48.043Z,4.65
2022-11-01T05:31:15.855Z,4.80
2022-11-01T05:33:43.061Z,4.80
2022-11-01T05:36:10.534Z,3.58
2022-11-01T05:38:37.854Z,4.20
2022-11-01T05:41:05.727Z,3.67
2022-11-01T05:43:33.020Z,5.50
2022-11-01T05:46:04.394Z,4.55
2022-11-01T05:48:31.672Z,4.80
2022-11-01T05:50:59.361Z,5.85
2022-11-01T05:53:26.826Z,5.10
2022-11-01T05:55:56.679Z,4.00
2022-11-01T05:58:28.050Z,5.72
2022-11-01T06:00:59.271Z,4.13
2022-11-01T06:03:26.608Z,5.35
2022-11-01T06:05:53.973Z,4.47
2022-11-01T06:08:21.329Z,6.72
2022-11-01T06:10:48.652Z,5.40
2022-11-01T06:13:17.140Z,5.45
2022-11-01T06:15:45.292Z,5.30
2022-11-01T06:18:12.569Z,6.07
2022-11-01T06:20:40.237Z,4.40
2022-11-01T06:23:12.061Z,4.60
2022-11-01T06:25:39.418Z,5.43
2022-11-01T06:28:06.792Z,5.88
2022-11-01T06:30:34.224Z,5.07
2022-11-01T06:33:02.777Z,5.40
2022-11-01T06:35:30.469Z,4.13
2022-11-01T06:38:06.998Z,6.30
2022-11-01T06:40:35.207Z,6.43
2022-11-01T06:43:05.133Z,5.82
2022-11-01T06:45:33.375Z,5.70
2022-11-01T06:48:01.358Z,4.32
2022-11-01T06:50:29.944Z,6.60
2022-11-01T06:52:58.480Z,6.03
2022-11-01T06:55:29.397Z,6.57
2022-11-01T06:58:02.263Z,5.68
2022-11-01T07:00:30.933Z,5.65
2022-11-01T07:03:05.730Z,5.55
2022-11-01T07:05:37.993Z,5.57
2022-11-01T07:08:09.183Z,6.53
2022-11-01T07:10:38.322Z,7.22
2022-11-01T07:13:10.013Z,6.47
2022-11-01T07:15:37.480Z,5.63
2022-11-01T07:18:06.757Z,5.28
2022-11-01T07:20:41.279Z,5.95
2022-11-01T07:23:16.941Z,6.20
2022-11-01T07:25:44.661Z,6.38
2022-11-01T07:28:12.300Z,6.20
2022-11-01T07:30:39.608Z,5.95
2022-11-01T07:33:07.253Z,6.28
2022-11-01T07:35:35.216Z,5.93
2022-11-01T07:38:05.061Z,5.50
2022-11-01T07:40:36.526Z,6.72
2022-11-01T07:43:04.855Z,6.80
2022-11-01T07:45:35.046Z,6.10
2022-11-01T07:48:05.314Z,6.60
2022-11-01T07:50:34.354Z,6.72
2022-11-01T07:53:07.241Z,6.38
2022-11-01T07:55:35.794Z,5.88
2022-11-01T07:58:04.809Z,5.97
2022-11-01T08:00:32.604Z,5.05
2022-11-01T08:03:02.047Z,5.82
2022-11-01T08:05:30.718Z,7.03
2022-11-01T08:07:58.534Z,6.05
2022-11-01T08:10:26.334Z,5.25
2022-11-01T08:12:59.871Z,5.65
2022-11-01T08:15:27.175Z,7.80
2022-11-01T08:17:58.344Z,5.63
2022-11-01T08:20:27.545Z,5.97
2022-11-01T08:22:56.201Z,5.15
2022-11-01T08:25:24.176Z,6.90
2022-11-01T08:27:51.770Z,6.32
2022-11-01T08:30:20.134Z,7.35
2022-11-01T08:32:47.685Z,6.10
2022-11-01T08:35:15.304Z,5.57
2022-11-01T08:37:53.122Z,6.38
2022-11-01T08:40:21.587Z,5.30
2022-11-01T08:42:49.066Z,4.68
2022-11-01T08:45:16.723Z,7.20
2022-11-01T08:47:44.827Z,6.22
2022-11-01T08:50:15.086Z,4.68
2022-11-01T08:52:42.741Z,5.60
2022-11-01T08:55:13.442Z,4.97
2022-11-01T08:57:40.980Z,5.18
2022-11-01T09:00:10.323Z,6.45
2022-11-01T09:02:38.030Z,6.15
2022-11-01T09:05:07.033Z,3.80
2022-11-01T09:07:38.201Z,4.20
2022-11-01T09:10:07.224Z,5.47
2022-11-01T09:12:35.219Z,5.40
2022-11-01T09:15:03.224Z,4.60
2022-11-01T09:17:30.748Z,4.85
2022-11-01T09:19:58.132Z,4.20
2022-11-01T09:22:26.258Z,4.28
2022-11-01T09:24:55.538Z,4.20
2022-11-01T09:27:23.328Z,4.35
2022-11-01T09:29:52.029Z,4.82
2022-11-01T09:32:19.597Z,4.30
2022-11-01T09:34:49.172Z,4.38
2022-11-01T09:37:17.623Z,4.47
2022-11-01T09:39:45.014Z,5.40
2022-11-01T09:42:28.889Z,5.15
2022-11-01T09:44:59.174Z,4.32
2022-11-01T09:47:30.039Z,4.80
2022-11-01T09:50:22.463Z,5.30
2022-11-01T09:52:51.379Z,5.72
2022-11-01T09:55:34.810Z,4.93
2022-11-01T09:58:30.273Z,6.10
2022-11-01T10:01:41.282Z,6.22
2022-11-01T10:04:49.821Z,6.25
2022-11-01T10:07:45.914Z,5.13
2022-11-01T10:10:35.730Z,6.32
2022-11-01T10:13:30.510Z,6.75
2022-11-01T10:16:31.055Z,5.30
2022-11-01T10:19:11.573Z,5.30
2022-11-01T10:21:44.693Z,5.32
2022-11-01T10:24:35.527Z,4.65
2022-11-01T10:27:20.793Z,5.30
2022-11-01T10:29:51.148Z,4.53
2022-11-01T10:32:58.487Z,5.13
2022-11-01T10:35:38.210Z,4.70
2022-11-01T10:41:39.207Z,5.13
2022-11-01T10:44:15.173Z,4.72
2022-11-01T10:46:46.886Z,4.55
2022-11-01T10:49:35.120Z,5.28
2022-11-01T10:52:18.549Z,4.28
2022-11-01T10:54:46.732Z,4.55
2022-11-01T10:57:37.736Z,4.55
2022-11-01T11:00:11.869Z,3.33
2022-11-01T11:02:44.611Z,3.97
2022-11-01T11:05:16.287Z,2.40
2022-11-01T11:07:44.469Z,3.13
2022-11-01T11:10:25.027Z,3.40
2022-11-01T11:12:59.074Z,4.00
2022-11-01T11:15:47.833Z,3.03
2022-11-01T11:18:32.359Z,2.92
2022-11-01T11:21:02.646Z,4.32
2022-11-01T11:23:33.992Z,2.58
2022-11-01T11:26:05.129Z,2.50
2022-11-01T11:28:35.651Z,2.53
2022-11-01T11:31:21.291Z,2.20
2022-11-01T11:34:08.392Z,3.25
2022-11-01T11:36:42.055Z,2.22
2022-11-01T11:39:26.654Z,2.53
2022-11-01T11:41:54.108Z,2.55
2022-11-01T11:44:42.191Z,3.25
2022-11-01T11:47:25.509Z,2.95
2022-11-01T11:50:00.822Z,3.53
2022-11-01T11:52:38.341Z,3.28
2022-11-01T11:55:25.631Z,3.10
2022-11-01T11:57:55.170Z,3.95
2022-11-01T12:00:26.761Z,2.88
2022-11-01T12:02:54.122Z,3.10
2022-11-01T12:05:23.875Z,5.18
2022-11-01T12:07:53.504Z,4.05
2022-11-01T12:10:36.609Z,3.00
2022-11-01T12:13:43.941Z,3.80
2022-11-01T12:16:19.060Z,4.38
2022-11-01T12:18:54.992Z,3.50
2022-11-01T12:21:32.888Z,3.75
2022-11-01T12:24:17.936Z,4.40
2022-11-01T12:26:47.236Z,4.50
2022-11-01T12:29:45.596Z,3.97
2022-11-01T12:32:25.195Z,2.85
2022-11-01T12:34:55.542Z,3.20
2022-11-01T12:37:47.757Z,3.83
2022-11-01T12:40:38.617Z,3.05
2022-11-01T12:43:15.015Z,3.67
2022-11-01T12:48:40.011Z,3.88
2022-11-01T12:51:22.628Z,4.43
2022-11-01T12:54:23.044Z,3.70
2022-11-01T12:56:50.331Z,6.15
2022-11-01T12:59:27.595Z,5.78
2022-11-01T13:02:15.783Z,4.60
2022-11-01T13:04:57.501Z,4.45
2022-11-01T13:08:06.787Z,3.78
2022-11-01T13:10:47.152Z,3.50
2022-11-01T13:13:14.644Z,3.28
2022-11-01T13:16:03.549Z,4.07
2022-11-01T13:18:51.918Z,4.63
2022-11-01T13:21:34.437Z,4.47
2022-11-01T13:24:23.168Z,3.38
2022-11-01T13:27:10.062Z,3.38
2022-11-01T13:32:28.484Z,4.00
2022-11-01T13:35:26.411Z,3.28
2022-11-01T13:37:57.275Z,4.93
2022-11-01T13:41:05.751Z,4.93
2022-11-01T13:43:44.878Z,3.38
2022-11-01T13:46:18.448Z,3.72
2022-11-01T13:48:57.824Z,4.00
2022-11-01T13:51:47.144Z,3.10
2022-11-01T13:54:43.893Z,3.75
2022-11-01T13:57:17.504Z,5.07
2022-11-01T13:59:54.974Z,4.13
2022-11-01T14:02:28.322Z,2.88
2022-11-01T14:05:08.580Z,3.10
2022-11-01T14:07:36.921Z,2.88
2022-11-01T14:10:22.800Z,2.22
2022-11-01T14:13:08.212Z,2.47
2022-11-01T14:15:39.584Z,2.20
2022-11-01T14:18:11.038Z,2.10
2022-11-01T14:20:47.245Z,1.95
2022-11-01T14:23:29.294Z,1.80
2022-11-01T14:26:18.222Z,2.65
2022-11-01T14:28:48.605Z,2.28
2022-11-01T14:31:19.005Z,2.88
2022-11-01T14:33:49.338Z,2.42
2022-11-01T14:36:20.858Z,2.97
2022-11-01T14:39:07.035Z,3.38
2022-11-01T14:41:40.658Z,2.47
2022-11-01T14:44:25.997Z,2.22
2022-11-01T14:46:57.034Z,3.85
2022-11-01T14:49:55.997Z,2.38
2022-11-01T14:52:32.251Z,2.17
2022-11-01T14:55:26.726Z,2.53
2022-11-01T14:58:18.781Z,3.08
2022-11-01T15:00:48.167Z,3.03
2022-11-01T15:03:16.356Z,1.83
2022-11-01T15:05:49.521Z,3.13
2022-11-01T15:08:25.717Z,2.60
2022-11-01T15:10:55.820Z,2.97
2022-11-01T15:13:24.890Z,3.03
2022-11-01T15:16:02.182Z,2.00
2022-11-01T15:18:31.802Z,2.17
2022-11-01T15:21:00.956Z,3.17
2022-11-01T15:23:35.526Z,2.40
2022-11-01T15:26:09.023Z,2.75
2022-11-01T15:28:52.638Z,3.08
2022-11-01T15:31:21.258Z,2.40
2022-11-01T15:34:04.023Z,2.65
2022-11-01T15:36:34.646Z,3.42
2022-11-01T15:39:04.557Z,3.63
2022-11-01T15:41:34.041Z,3.45
2022-11-01T15:44:03.286Z,3.63
2022-11-01T15:46:33.506Z,3.78
2022-11-01T15:49:06.827Z,3.60
2022-11-01T15:51:40.761Z,4.05
2022-11-01T15:54:20.100Z,3.13
2022-11-01T15:56:53.262Z,4.72
2022-11-01T15:59:49.544Z,4.13
2022-11-01T16:02:27.948Z,4.38
2022-11-01T16:04:56.467Z,4.05
2022-11-01T16:07:25.000Z,4.45
2022-11-01T16:09:59.641Z,3.58
2022-11-01T16:12:38.602Z,4.63
2022-11-01T16:15:09.835Z,5.57
2022-11-01T16:17:42.468Z,3.30
2022-11-01T16:20:29.368Z,5.05
2022-11-01T16:25:27.490Z,4.47
2022-11-01T16:28:08.779Z,4.35
2022-11-01T16:30:39.049Z,3.75
2022-11-01T16:33:44.651Z,4.88
2022-11-01T16:36:18.245Z,4.35
2022-11-01T16:38:55.449Z,4.65
2022-11-01T16:41:36.361Z,4.70
2022-11-01T16:44:16.111Z,4.35
2022-11-01T16:51:46.800Z,5.05
2022-11-01T16:54:15.059Z,4.32
2022-11-01T16:57:00.392Z,5.65
2022-11-01T16:59:33.435Z,5.13
2022-11-01T17:02:02.828Z,4.25
2022-11-01T17:04:30.439Z,4.97
2022-11-01T17:07:00.324Z,5.32
2022-11-01T17:09:30.944Z,5.70
2022-11-01T17:11:58.472Z,7.47
2022-11-01T17:14:26.496Z,5.53
2022-11-01T17:16:56.513Z,5.15
2022-11-01T17:19:23.832Z,4.85
2022-11-01T17:21:52.414Z,4.63
2022-11-01T17:24:24.054Z,5.10
2022-11-01T17:26:52.805Z,5.22
2022-11-01T17:29:20.206Z,4.60
2022-11-01T17:31:48.248Z,4.88
2022-11-01T17:34:16.417Z,4.60
2022-11-01T17:36:49.053Z,5.32
2022-11-01T17:39:16.881Z,6.35
2022-11-01T17:41:44.167Z,6.20
2022-11-01T17:44:12.297Z,5.22
2022-11-01T17:46:40.092Z,4.40
2022-11-01T17:49:07.353Z,3.78
2022-11-01T17:51:34.718Z,4.63
2022-11-01T17:54:02.019Z,4.75
2022-11-01T17:56:29.410Z,4.38
2022-11-01T17:58:56.871Z,4.38
2022-11-01T18:01:24.933Z,3.10
2022-11-01T18:03:52.331Z,3.42
2022-11-01T18:06:19.602Z,3.65
2022-11-01T18:08:50.124Z,3.17
2022-11-01T18:11:41.803Z,3.20
2022-11-01T18:14:37.463Z,4.00
2022-11-01T18:17:25.455Z,3.10
2022-11-01T18:20:14.098Z,2.97
2022-11-01T18:22:53.121Z,2.75
2022-11-01T18:25:42.501Z,3.20
2022-11-01T18:28:30.232Z,3.20
2022-11-01T18:31:00.373Z,3.25
2022-11-01T18:33:50.452Z,5.18
2022-11-01T18:36:24.045Z,3.53
2022-11-01T18:38:58.449Z,4.82
2022-11-01T18:41:25.832Z,4.03
2022-11-01T18:43:54.821Z,2.55
2022-11-01T18:46:26.800Z,3.65
2022-11-01T18:49:02.054Z,3.17
2022-11-01T18:51:34.507Z,3.83
2022-11-01T18:54:11.042Z,3.88
2022-11-01T18:56:50.157Z,3.75
2022-11-01T18:59:31.481Z,3.60
2022-11-01T19:02:11.131Z,4.15
2022-11-01T19:04:42.358Z,3.60
2022-11-01T19:07:20.250Z,3.00
2022-11-01T19:09:50.329Z,3.30
2022-11-01T19:12:21.619Z,4.13
2022-11-01T19:14:56.485Z,3.30
2022-11-01T19:17:29.411Z,4.28
2022-11-01T19:19:57.471Z,5.68
2022-11-01T19:22:28.511Z,3.35
2022-11-01T19:24:55.745Z,3.85
2022-11-01T19:27:23.407Z,4.60
2022-11-01T19:29:56.872Z,3.67
2022-11-01T19:32:25.838Z,4.40
2022-11-01T19:34:54.472Z,4.32
2022-11-01T19:37:34.917Z,4.15
2022-11-01T19:40:12.759Z,4.15
2022-11-01T19:42:40.090Z,4.03
2022-11-01T19:45:10.411Z,4.13
2022-11-01T19:47:48.216Z,5.60
2022-11-01T19:50:22.682Z,3.75
2022-11-01T19:52:56.609Z,4.07
2022-11-01T19:55:41.932Z,5.50
2022-11-01T19:58:28.149Z,4.40
2022-11-01T20:01:03.666Z,5.28
2022-11-01T20:03:36.841Z,4.93
2022-11-01T20:06:21.183Z,5.20
2022-11-01T20:08:57.655Z,5.00
2022-11-01T20:13:52.522Z,4.38
2022-11-01T20:16:19.856Z,3.22
2022-11-01T20:18:47.215Z,4.13
2022-11-01T20:21:14.425Z,3.58
2022-11-01T20:23:41.916Z,4.38
2022-11-01T20:26:09.397Z,4.07
2022-11-01T20:28:36.851Z,3.05
2022-11-01T20:31:05.532Z,3.63
2022-11-01T20:33:32.978Z,3.63
2022-11-01T20:36:00.267Z,3.50
2022-11-01T20:38:27.644Z,3.05
2022-11-01T20:40:55.366Z,3.20
2022-11-01T20:43:22.707Z,2.45
2022-11-01T20:45:50.011Z,2.97
2022-11-01T20:48:18.383Z,3.10
2022-11-01T20:50:46.041Z,2.58
2022-11-01T20:53:14.842Z,3.58
2022-11-01T20:55:42.953Z,3.17
2022-11-01T20:58:11.402Z,2.55
2022-11-01T21:00:38.791Z,2.58
2022-11-01T21:03:18.581Z,3.30
2022-11-01T21:05:48.034Z,2.78
2022-11-01T21:08:23.940Z,2.88
2022-11-01T21:11:03.017Z,2.50
2022-11-01T21:13:31.728Z,2.33
2022-11-01T21:16:01.371Z,3.08
2022-11-01T21:18:36.844Z,2.85
2022-11-01T21:21:16.062Z,2.83
2022-11-01T21:23:47.856Z,2.92
2022-11-01T21:26:28.126Z,2.53
2022-11-01T21:29:02.380Z,2.38
2022-11-01T21:31:32.302Z,2.25
2022-11-01T21:34:10.164Z,1.83
2022-11-01T21:36:41.427Z,2.15
2022-11-01T21:39:15.539Z,2.72
2022-11-01T21:41:50.936Z,2.97
2022-11-01T21:44:36.834Z,3.05
2022-11-01T21:47:20.919Z,2.72
2022-11-01T21:49:48.656Z,2.75
2022-11-01T21:52:16.258Z,2.55
2022-11-01T21:54:43.885Z,2.70
2022-11-01T21:57:11.974Z,3.33
2022-11-01T21:59:40.263Z,4.22
2022-11-01T22:02:11.151Z,3.80
2022-11-01T22:04:38.529Z,3.08
2022-11-01T22:07:07.410Z,3.33
2022-11-01T22:09:35.512Z,3.83
2022-11-01T22:12:03.094Z,3.47
2022-11-01T22:14:30.564Z,4.13
2022-11-01T22:16:58.118Z,3.75
2022-11-01T22:19:25.510Z,3.92
2022-11-01T22:21:53.324Z,3.42
2022-11-01T22:24:20.706Z,3.85
2022-11-01T22:26:48.028Z,3.63
2022-11-01T22:29:15.393Z,5.18
2022-11-01T22:31:42.980Z,3.85
2022-11-01T22:34:10.312Z,6.22
2022-11-01T22:36:39.924Z,3.30
2022-11-01T22:39:16.587Z,3.15
2022-11-01T22:41:44.085Z,3.72
2022-11-01T22:44:17.327Z,3.78
2022-11-01T22:47:26.979Z,3.45
2022-11-01T22:50:01.365Z,3.70
2022-11-01T22:52:38.946Z,4.28
2022-11-01T22:55:22.539Z,4.57
2022-11-01T22:57:59.808Z,3.83
2022-11-01T23:00:36.474Z,3.15
2022-11-01T23:03:23.701Z,4.15
2022-11-01T23:05:53.650Z,3.95
2022-11-01T23:08:26.755Z,3.72
2022-11-01T23:10:54.810Z,3.45
2022-11-01T23:13:48.240Z,3.63
2022-11-01T23:16:23.592Z,3.95
2022-11-01T23:18:52.945Z,3.92
2022-11-01T23:21:22.307Z,3.42
2022-11-01T23:23:49.866Z,3.13
2022-11-01T23:26:18.670Z,3.30
2022-11-01T23:28:57.117Z,3.08
2022-11-01T23:31:26.686Z,2.38
2022-11-01T23:33:54.667Z,3.08
2022-11-01T23:36:30.805Z,3.47
2022-11-01T23:39:09.572Z,2.92
2022-11-01T23:41:47.596Z,2.83
2022-11-01T23:44:35.321Z,5.05
2022-11-01T23:47:25.034Z,2.38
2022-11-01T23:50:10.010Z,3.55
2022-11-01T23:52:47.815Z,4.20
2022-11-01T23:55:24.547Z,3.35
2022-11-01T23:58:00.098Z,2.83
